createdAt,value
2023-05-21T02:20:56.592Z,0.373
2023-05-21T02:29:27.016Z,0.747
2023-05-21T02:33:16.663Z,1.494
2023-05-21T02:36:35.659Z,2.241
2023-05-21T02:39:18.976Z,3.361
2023-05-21T02:41:57.206Z,4.482
2023-05-21T02:44:40.490Z,6.723
2023-05-21T02:47:39.287Z,9.711
2023-05-21T02:50:12.219Z,14.193
2023-05-21T02:52:45.508Z,20.169
2023-05-21T02:55:23.571Z,28.759
2023-05-21T02:58:01.832Z,39.964
2023-05-21T03:00:40.017Z,53.784
2023-05-21T03:03:13.264Z,69.471
2023-05-21T03:05:46.384Z,89.64
2023-05-21T03:08:34.837Z,115.785
2023-05-21T03:11:07.952Z,142.677
2023-05-21T03:13:51.268Z,174.051
2023-05-21T03:16:24.428Z,210.654
2023-05-21T03:19:07.768Z,261.45
2023-05-21T03:21:56.119Z,324.198
2023-05-21T03:24:29.230Z,394.416
2023-05-21T03:27:17.685Z,481.068
2023-05-21T03:29:50.873Z,567.72
2023-05-21T03:32:29.097Z,675.288
2023-05-21T03:35:12.418Z,794.808
2023-05-21T03:38:16.127Z,956.16
2023-05-21T03:40:59.471Z,1123.488
2023-05-21T03:44:03.165Z,1338.624
2023-05-21T03:47:01.778Z,1565.712
2023-05-21T03:49:40.045Z,1804.752
2023-05-21T03:52:43.729Z,2043.792
2023-05-21T03:55:37.386Z,2223.072
2023-05-21T03:59:11.519Z,2366.496
2023-05-21T04:02:40.769Z,2414.304
2023-05-21T04:05:39.279Z,2486.016
2023-05-21T04:09:44.107Z,2653.344
2023-05-21T04:13:43.854Z,2868.48
2023-05-21T04:19:34.040Z,3203.136
2023-05-21T04:24:34.124Z,3561.696
2023-05-21T04:29:34.222Z,3920.256
2023-05-21T04:34:34.282Z,4302.72
2023-05-21T04:39:34.386Z,4756.896
2023-05-21T04:44:34.532Z,5163.264
2023-05-21T04:49:34.636Z,5665.248
2023-05-21T04:54:34.709Z,6310.656
2023-05-21T04:59:34.819Z,6979.968
2023-05-21T05:04:34.960Z,7792.704
2023-05-21T05:07:43.770Z,8222.976
2023-05-21T05:10:57.654Z,9131.328
2023-05-21T05:16:42.684Z,9896.256
2023-05-21T05:21:42.969Z,10087.488
2023-05-21T05:26:03.045Z,10374.336
2023-05-21T05:31:02.400Z,10517.76
2023-05-21T05:34:28.457Z,12334.464
2023-05-21T05:38:27.813Z,16828.416
2023-05-21T05:43:27.932Z,16637.184
2023-05-21T05:48:27.973Z,17880.192
2023-05-21T05:52:43.102Z,17975.808
2023-05-21T05:55:16.292Z,20270.592
2023-05-21T05:57:49.423Z,21131.136
2023-05-21T06:00:27.634Z,21513.6
2023-05-21T06:03:01.032Z,22087.296
2023-05-21T06:05:44.065Z,22756.608
2023-05-21T06:08:27.383Z,23425.92
2023-05-21T06:11:15.817Z,23904
2023-05-21T06:14:19.623Z,24477.696
2023-05-21T06:17:08.171Z,24668.928
2023-05-21T06:19:46.432Z,24860.16
2023-05-21T06:23:00.499Z,24382.08
2023-05-21T06:25:38.944Z,20939.904
2023-05-21T06:28:17.063Z,19601.28
2023-05-21T06:31:00.420Z,17402.112
2023-05-21T06:33:38.730Z,14151.168
2023-05-21T06:36:16.826Z,11330.496
2023-05-21T06:38:55.089Z,10613.376
2023-05-21T06:41:28.255Z,10278.72
2023-05-21T06:44:16.765Z,10374.336
2023-05-21T06:47:15.424Z,11569.536
2023-05-21T06:49:48.576Z,12908.16
2023-05-21T06:52:21.763Z,14055.552
2023-05-21T06:55:00.018Z,14055.552
2023-05-21T06:58:03.828Z,13864.32
2023-05-21T07:00:37.022Z,14533.632
2023-05-21T07:03:20.580Z,14438.016
2023-05-21T07:06:03.725Z,13099.392
2023-05-21T07:08:52.161Z,12812.544
2023-05-21T07:11:25.445Z,13768.704
2023-05-21T07:14:34.338Z,18262.656
2023-05-21T07:17:53.484Z,19888.128
2023-05-21T07:20:41.883Z,23617.152
2023-05-21T07:23:15.137Z,26963.712
2023-05-21T07:25:48.333Z,27346.176
2023-05-21T07:28:21.536Z,29640.96
2023-05-21T07:30:54.774Z,28684.8
2023-05-21T07:33:27.893Z,31935.744
2023-05-21T07:36:01.104Z,31553.28
2023-05-21T07:38:39.419Z,33083.136
2023-05-21T07:41:38.098Z,36525.312
2023-05-21T07:44:31.726Z,38628.864
2023-05-21T07:47:25.277Z,39393.792
2023-05-21T07:50:03.501Z,40158.72
2023-05-21T07:52:52.072Z,41497.344
2023-05-21T07:55:45.676Z,42071.04
2023-05-21T07:58:23.898Z,43027.2
2023-05-21T08:00:57.036Z,42835.968
2023-05-21T08:03:30.316Z,43409.664
2023-05-21T08:06:44.294Z,43792.128
2023-05-21T08:09:17.492Z,44748.288
2023-05-21T08:11:50.645Z,45321.984
2023-05-21T08:14:28.918Z,45513.216
2023-05-21T08:17:07.158Z,45513.216
2023-05-21T08:19:45.356Z,46278.144
2023-05-21T08:22:28.805Z,46469.376
2023-05-21T08:25:07.071Z,46469.376
2023-05-21T08:28:00.681Z,47043.072
2023-05-21T08:30:33.895Z,47616.768
2023-05-21T08:33:07.157Z,48572.928
2023-05-21T08:35:40.378Z,48572.928
2023-05-21T08:38:30.356Z,49337.856
2023-05-21T08:41:27.664Z,50102.784
2023-05-21T08:44:05.932Z,50485.248
2023-05-21T08:46:44.246Z,50485.248
2023-05-21T08:49:53.156Z,50485.248
2023-05-21T08:52:31.462Z,50867.712
2023-05-21T08:55:19.964Z,51632.64
2023-05-21T08:57:58.305Z,52397.568
2023-05-21T09:00:31.507Z,52780.032
2023-05-21T09:03:04.770Z,52780.032
2023-05-21T09:05:53.213Z,52397.568
2023-05-21T09:09:12.465Z,53544.96
2023-05-21T09:12:41.780Z,53927.424
2023-05-21T09:15:30.282Z,54309.888
2023-05-21T09:18:23.973Z,55457.28
2023-05-21T09:21:37.954Z,54692.352
2023-05-21T09:24:52.083Z,55074.816
2023-05-21T09:27:55.891Z,56222.208
2023-05-21T09:31:25.375Z,56604.672
2023-05-21T09:34:59.798Z,57369.6
2023-05-21T09:37:38.107Z,58134.528
2023-05-21T09:40:41.959Z,58516.992
2023-05-21T09:43:20.295Z,58899.456
2023-05-21T09:46:08.825Z,58516.992
2023-05-21T09:48:42.049Z,61194.24
2023-05-21T09:51:20.410Z,59664.384
2023-05-21T09:54:39.536Z,61194.24
2023-05-21T09:57:12.746Z,60046.848
2023-05-21T09:59:46.109Z,59281.92
2023-05-21T10:02:21.525Z,61576.704
2023-05-21T10:04:59.861Z,64253.952
2023-05-21T10:07:33.021Z,64253.952
2023-05-21T10:10:06.601Z,20844.288
2023-05-21T10:12:40.865Z,64636.416
2023-05-21T10:15:11.103Z,18931.968
2023-05-21T10:17:55.113Z,64253.952
2023-05-21T10:20:33.344Z,61194.24
2023-05-21T10:23:16.745Z,62341.632
2023-05-21T10:25:54.312Z,62341.632
2023-05-21T10:28:37.698Z,61576.704
2023-05-21T10:31:09.260Z,23139.072
2023-05-21T10:33:42.907Z,46851.84
2023-05-21T10:36:29.013Z,64636.416
2023-05-21T10:39:23.603Z,63106.56
2023-05-21T10:41:56.994Z,61576.704
2023-05-21T10:44:28.711Z,60811.776
2023-05-21T10:47:12.087Z,65018.88
2023-05-21T10:49:55.424Z,66931.2
2023-05-21T10:52:28.636Z,67313.664
2023-05-21T10:55:17.151Z,67313.664
2023-05-21T10:58:26.913Z,66166.272
2023-05-21T11:00:59.141Z,68078.592
2023-05-21T11:03:37.544Z,64253.952
2023-05-21T11:06:51.741Z,67313.664
2023-05-21T11:10:05.783Z,65783.808
2023-05-21T11:12:44.020Z,63106.56
2023-05-21T11:15:32.620Z,23808.384
2023-05-21T11:18:37.726Z,66166.272
2023-05-21T11:21:21.103Z,65401.344
2023-05-21T11:23:59.419Z,60811.776
2023-05-21T11:26:32.601Z,63106.56
2023-05-21T11:29:05.849Z,60811.776
2023-05-21T11:32:09.684Z,63871.488
2023-05-21T11:34:42.752Z,63106.56
2023-05-21T11:37:14.685Z,61576.704
2023-05-21T11:39:47.913Z,60429.312
2023-05-21T11:42:21.096Z,60046.848
2023-05-21T11:45:04.529Z,62724.096
2023-05-21T11:47:42.955Z,61959.168
2023-05-21T11:50:16.144Z,61576.704
2023-05-21T11:52:54.467Z,62724.096
2023-05-21T11:55:37.826Z,61959.168
2023-05-21T11:58:21.243Z,62341.632
2023-05-21T12:01:19.991Z,65018.88
2023-05-21T12:03:58.342Z,63871.488
2023-05-21T12:06:31.614Z,61959.168
2023-05-21T12:09:14.943Z,62724.096
2023-05-21T12:11:48.150Z,61194.24
2023-05-21T12:14:26.478Z,62341.632
2023-05-21T12:16:59.657Z,62341.632
2023-05-21T12:19:32.812Z,65783.808
2023-05-21T12:22:11.128Z,65401.344
2023-05-21T12:24:54.562Z,65401.344
2023-05-21T12:29:09.813Z,65783.808
2023-05-21T12:31:42.978Z,65401.344
2023-05-21T12:34:21.207Z,61576.704
2023-05-21T12:36:59.494Z,62341.632
2023-05-21T12:40:03.341Z,59664.384
2023-05-21T12:42:52.011Z,61576.704
2023-05-21T12:46:16.220Z,62724.096
2023-05-21T12:49:04.549Z,59664.384
2023-05-21T12:51:42.902Z,59664.384
2023-05-21T12:54:16.039Z,60429.312
2023-05-21T12:56:54.366Z,59281.92
2023-05-21T12:59:37.815Z,57369.6
2023-05-21T13:03:07.346Z,56222.208
2023-05-21T13:05:40.278Z,55457.28
2023-05-21T13:08:33.716Z,56222.208
2023-05-21T13:11:17.110Z,55457.28
2023-05-21T13:13:55.375Z,55074.816
2023-05-21T13:16:28.507Z,54309.888
2023-05-21T13:19:06.845Z,55074.816
2023-05-21T13:22:10.546Z,56604.672
2023-05-21T13:24:43.712Z,56222.208
2023-05-21T13:27:16.811Z,53927.424
2023-05-21T13:29:55.062Z,51250.176
2023-05-21T13:32:33.404Z,48955.392
2023-05-21T13:35:11.603Z,49720.32
2023-05-21T13:38:25.469Z,53162.496
2023-05-21T13:40:58.575Z,53544.96
2023-05-21T13:43:31.892Z,54309.888
2023-05-21T13:46:05.174Z,53162.496
2023-05-21T13:48:43.330Z,54309.888
2023-05-21T13:51:38.441Z,44365.824
2023-05-21T13:54:04.573Z,56222.208
2023-05-21T13:56:53.094Z,54309.888
2023-05-21T13:59:26.251Z,53544.96
2023-05-21T14:02:09.673Z,50867.712
2023-05-21T14:04:41.344Z,20079.36
2023-05-21T14:07:11.773Z,33848.064
2023-05-21T14:09:59.149Z,46086.912
2023-05-21T14:12:32.376Z,44174.592
2023-05-21T14:15:05.529Z,43027.2
2023-05-21T14:17:43.864Z,43983.36
2023-05-21T14:20:47.568Z,50485.248
2023-05-21T14:23:20.676Z,48955.392
2023-05-21T14:26:04.074Z,48955.392
2023-05-21T14:29:23.296Z,49720.32
2023-05-21T14:32:06.473Z,47999.232
2023-05-21T14:34:39.614Z,45130.752
2023-05-21T14:37:17.885Z,43409.664
2023-05-21T14:41:07.550Z,45704.448
2023-05-21T14:43:40.675Z,40349.952
2023-05-21T14:46:44.468Z,35186.688
2023-05-21T14:49:58.462Z,32700.672
2023-05-21T14:52:36.716Z,32509.44
2023-05-21T14:55:09.781Z,30597.12
2023-05-21T14:57:58.233Z,32700.672
2023-05-21T15:00:31.392Z,33465.6
2023-05-21T15:03:09.735Z,30979.584
2023-05-21T15:05:47.864Z,28302.336
2023-05-21T15:09:01.845Z,31362.048
2023-05-21T15:11:40.073Z,28493.568
2023-05-21T15:14:38.702Z,31744.512
2023-05-21T15:17:22.213Z,33656.832
2023-05-21T15:20:00.454Z,34995.456
2023-05-21T15:23:15.784Z,37672.704
2023-05-21T15:25:37.434Z,39011.328
2023-05-21T15:28:10.438Z,38246.4
2023-05-21T15:30:43.547Z,35377.92
2023-05-21T15:33:15.569Z,16924.032
2023-05-21T15:35:58.881Z,15298.56
2023-05-21T15:39:12.888Z,15872.256
2023-05-21T15:41:45.973Z,16732.8
2023-05-21T15:44:20.781Z,30979.584
2023-05-21T15:46:53.692Z,24477.696
2023-05-21T15:50:00.629Z,24477.696
2023-05-21T15:52:51.637Z,22756.608
2023-05-21T15:55:38.246Z,22852.224
2023-05-21T15:58:16.248Z,22565.376
2023-05-21T16:00:59.711Z,21513.6
2023-05-21T16:03:48.169Z,21513.6
2023-05-21T16:06:31.515Z,21131.136
2023-05-21T16:09:55.734Z,20748.672
2023-05-21T16:12:33.903Z,19601.28
2023-05-21T16:15:07.014Z,19888.128
2023-05-21T16:18:00.713Z,19888.128
2023-05-21T16:20:33.803Z,19505.664
2023-05-21T16:23:06.928Z,17880.192
2023-05-21T16:25:40.232Z,19792.512
2023-05-21T16:28:23.493Z,20653.056
2023-05-21T16:30:56.539Z,21131.136
2023-05-21T16:33:34.717Z,20748.672
2023-05-21T16:37:04.027Z,20174.976
2023-05-21T16:39:37.259Z,19218.816
2023-05-21T16:42:35.891Z,18645.12
2023-05-21T16:45:34.693Z,16924.032
2023-05-21T16:49:03.734Z,15489.792
2023-05-21T16:51:36.956Z,14916.096
2023-05-21T16:54:15.155Z,13195.008
2023-05-21T16:56:48.263Z,12908.16
2023-05-21T16:59:36.703Z,13959.936
2023-05-21T17:02:25.151Z,14438.016
2023-05-21T17:05:44.243Z,12908.16
2023-05-21T17:08:17.237Z,13003.776
2023-05-21T17:10:55.500Z,11856.384
2023-05-21T17:17:07.913Z,9848.448
2023-05-21T17:20:21.812Z,8270.784
2023-05-21T17:22:59.945Z,7266.816
2023-05-21T17:25:58.524Z,5880.384
2023-05-21T17:28:46.923Z,5378.4
2023-05-21T17:31:35.269Z,4995.936
2023-05-21T17:34:08.356Z,4326.624
2023-05-21T17:37:47.781Z,4135.392
2023-05-21T17:40:36.095Z,3896.352
2023-05-21T17:43:24.496Z,3537.792
2023-05-21T17:46:02.742Z,3131.424
2023-05-21T17:49:11.428Z,3131.424
2023-05-21T17:52:10.015Z,3298.752
2023-05-21T17:54:53.243Z,3322.656
2023-05-21T17:57:41.584Z,3250.944
2023-05-21T18:00:29.941Z,3107.52
2023-05-21T18:05:44.422Z,2713.104
2023-05-21T18:09:49.394Z,2414.304
2023-05-21T18:13:03.311Z,2187.216
2023-05-21T18:16:01.756Z,1995.984
2023-05-21T18:21:16.576Z,1721.088
2023-05-21T18:24:15.220Z,1517.904
2023-05-21T18:27:29.071Z,1332.648
2023-05-21T18:32:48.946Z,1045.8
2023-05-21T18:36:02.851Z,896.4
2023-05-21T18:38:40.987Z,776.88
2023-05-21T18:41:19.135Z,666.324
2023-05-21T18:43:52.198Z,561.744
2023-05-21T18:46:35.528Z,466.128
2023-05-21T18:49:49.412Z,372.006
2023-05-21T18:52:22.747Z,303.282
2023-05-21T18:55:05.839Z,245.016
2023-05-21T18:57:54.216Z,197.208
2023-05-21T19:02:29.767Z,142.677
2023-05-21T19:05:43.512Z,108.315
2023-05-21T19:09:38.156Z,73.579
2023-05-21T19:15:54.329Z,35.109
2023-05-21T19:21:44.636Z,16.06
2023-05-21T19:24:38.148Z,10.831
2023-05-21T19:29:37.975Z,5.602
2023-05-21T19:33:02.150Z,3.735
2023-05-21T19:35:35.154Z,2.614
2023-05-21T19:39:19.529Z,1.494
2023-05-21T19:42:23.424Z,0.747
2023-05-21T19:51:54.533Z,0
